首页
METAR-TAF:

METAR-TAF

机场 :

Somerset Airport

Somerville, 新泽西州, 美国

纬度: 40-37-26N, 经度: 074-40-10W, 海拔: 32米

当前天气观测

该预报发布于32分钟前的06:53 UTC
静风
温度 23°C
湿度 89%
气压 1015 hPa
能見度: 16.1公里
天空无云

METAR: KSMQ 170653Z AUTO 00000KT 10SM CLR 23/21 A2997 RMK AO2 SLP147 T02330206

时间: 03:25 (07:25 UTC)


TAF: 丢失

超过4000个机场的气象观测和天气预报(METAR&TAF报告)。

可查询的气象台以黄色和红色小点在地图上表示。

将鼠标移到小点上方,可查看气象台名称。

然后点击查看天气观测和预报。

如需切换地图:点击带黑十字的绿色按钮放大地图;点击带横线的绿色按钮缩小地图;或者点击绿色箭头查看邻近地区的地图。


METAR-TAF: